Time;durP1;ratioP1;P1;durP2;ratioP2;P2;SDS_P1;SDS_P2;PMS_P1;PMS_P2;Temp;Humidity;BMP_temperature;BMP_pressure;BME280_temperature;BME280_humidity;BME280_pressure;Samples;Min_cycle;Max_cycle;Signal;HPM_P1;HPM_P2
2021/01/11 00:00:54;;;;;;;28.55;13.43;;;;;;;;;;5014963;28;20029;-50
2021/01/11 00:03:20;;;;;;;26.02;13.20;;;;;;;;;;5009502;28;20069;-53
2021/01/11 00:05:46;;;;;;;27.75;13.23;;;;;;;;;;5010937;28;20034;-55
2021/01/11 00:08:12;;;;;;;28.63;13.52;;;;;;;;;;5029802;28;20048;-51
2021/01/11 00:10:38;;;;;;;26.00;13.70;;;;;;;;;;5027883;28;20033;-56
2021/01/11 00:13:04;;;;;;;22.95;12.35;;;;;;;;;;5029460;28;20025;-57
2021/01/11 00:15:30;;;;;;;26.52;13.25;;;;;;;;;;5029630;28;20048;-53
2021/01/11 00:17:56;;;;;;;24.95;13.52;;;;;;;;;;5029261;28;20036;-51
2021/01/11 00:20:22;;;;;;;30.85;13.70;;;;;;;;;;5028371;28;20036;-54
2021/01/11 00:22:48;;;;;;;23.13;12.35;;;;;;;;;;5011376;28;20029;-52
2021/01/11 00:25:14;;;;;;;28.50;13.48;;;;;;;;;;5023519;28;20052;-54
2021/01/11 00:27:40;;;;;;;24.38;12.90;;;;;;;;;;5028156;28;20025;-52
2021/01/11 00:30:07;;;;;;;26.63;13.05;;;;;;;;;;5029441;28;20890;-54
2021/01/11 00:32:34;;;;;;;24.23;12.52;;;;;;;;;;5027934;28;20030;-57
2021/01/11 00:35:00;;;;;;;27.63;12.07;;;;;;;;;;5045472;28;20048;-54
2021/01/11 00:37:26;;;;;;;24.80;11.70;;;;;;;;;;5045759;28;20529;-51
2021/01/11 00:39:53;;;;;;;23.38;11.52;;;;;;;;;;5024026;28;20018;-51
2021/01/11 00:42:19;;;;;;;21.35;11.63;;;;;;;;;;5020819;28;20673;-57
2021/01/11 00:44:44;;;;;;;20.55;10.02;;;;;;;;;;5029022;28;20045;-54
2021/01/11 00:47:11;;;;;;;19.38;11.25;;;;;;;;;;5028369;28;20424;-52
2021/01/11 00:49:37;;;;;;;23.23;11.40;;;;;;;;;;5029143;28;20043;-56
2021/01/11 00:52:03;;;;;;;21.58;10.57;;;;;;;;;;5027806;28;20041;-53
2021/01/11 00:54:29;;;;;;;20.05;10.27;;;;;;;;;;5028751;28;20032;-54
2021/01/11 00:56:55;;;;;;;19.88;9.77;;;;;;;;;;5028157;28;20433;-55
2021/01/11 00:59:21;;;;;;;15.32;8.23;;;;;;;;;;5028506;28;20025;-56
2021/01/11 01:02:01;;;;;;;19.02;9.10;;;;;;;;;;5028323;28;20378;-53
2021/01/11 01:04:27;;;;;;;15.45;8.10;;;;;;;;;;5027693;28;20026;-53
2021/01/11 01:06:53;;;;;;;18.10;8.50;;;;;;;;;;5028463;28;20044;-53
2021/01/11 01:09:19;;;;;;;18.60;9.35;;;;;;;;;;5028673;28;20034;-54
2021/01/11 01:11:45;;;;;;;16.42;8.75;;;;;;;;;;5008313;28;20029;-53
2021/01/11 01:14:11;;;;;;;19.05;8.95;;;;;;;;;;5023737;28;20040;-53
2021/01/11 01:16:37;;;;;;;15.75;8.02;;;;;;;;;;5028025;28;20072;-53
2021/01/11 01:19:03;;;;;;;14.23;8.10;;;;;;;;;;5027917;28;20516;-51
2021/01/11 01:21:29;;;;;;;15.52;8.43;;;;;;;;;;5028107;28;20033;-54
2021/01/11 01:23:55;;;;;;;16.60;8.82;;;;;;;;;;5027374;28;20021;-55
2021/01/11 01:26:21;;;;;;;12.38;7.28;;;;;;;;;;5027619;28;20021;-55
2021/01/11 01:28:47;;;;;;;15.27;8.18;;;;;;;;;;5028593;28;20044;-54
2021/01/11 01:31:13;;;;;;;16.67;8.45;;;;;;;;;;5027732;28;20017;-54
2021/01/11 01:33:39;;;;;;;15.80;7.80;;;;;;;;;;5032677;28;20144;-56
2021/01/11 01:36:05;;;;;;;17.40;8.10;;;;;;;;;;5031538;28;20088;-53
2021/01/11 01:38:31;;;;;;;13.88;7.30;;;;;;;;;;5027455;28;20171;-56
2021/01/11 01:40:57;;;;;;;13.50;7.53;;;;;;;;;;5013387;28;20053;-54
2021/01/11 01:43:23;;;;;;;12.20;7.63;;;;;;;;;;5022623;28;20033;-51
2021/01/11 01:45:49;;;;;;;15.25;7.50;;;;;;;;;;5027350;28;20025;-54
2021/01/11 01:48:16;;;;;;;17.98;8.90;;;;;;;;;;5027877;28;20068;-52
2021/01/11 01:50:42;;;;;;;13.82;7.40;;;;;;;;;;5027685;28;20417;-52
2021/01/11 01:53:08;;;;;;;16.90;8.98;;;;;;;;;;5027446;28;20040;-54
2021/01/11 01:55:36;;;;;;;15.13;8.60;;;;;;;;;;5027606;28;20037;-57
2021/01/11 01:58:03;;;;;;;14.52;7.88;;;;;;;;;;5027557;28;20079;-52
2021/01/11 02:00:29;;;;;;;14.93;8.23;;;;;;;;;;5027198;28;20026;-53
2021/01/11 02:02:55;;;;;;;15.82;8.10;;;;;;;;;;5027526;28;20013;-55
2021/01/11 02:05:21;;;;;;;16.30;8.25;;;;;;;;;;5027151;28;20052;-57
2021/01/11 02:07:56;;;;;;;14.40;8.10;;;;;;;;;;5025606;28;20094;-56
2021/01/11 02:10:42;;;;;;;17.40;7.72;;;;;;;;;;5027121;28;20037;-53
2021/01/11 02:13:11;;;;;;;18.10;8.50;;;;;;;;;;5027086;28;20037;-51
2021/01/11 02:15:46;;;;;;;14.18;7.78;;;;;;;;;;5027393;28;20040;-52
2021/01/11 02:18:14;;;;;;;15.52;8.00;;;;;;;;;;5027525;28;20044;-51
2021/01/11 02:20:59;;;;;;;16.38;7.90;;;;;;;;;;5027162;28;20591;-56
2021/01/11 02:23:43;;;;;;;13.80;7.90;;;;;;;;;;5026605;28;20047;-55
2021/01/11 02:26:16;;;;;;;13.65;7.20;;;;;;;;;;5027081;28;20545;-54
2021/01/11 02:28:58;;;;;;;18.30;9.00;;;;;;;;;;5027393;28;20044;-52
2021/01/11 02:31:25;;;;;;;14.52;7.60;;;;;;;;;;5027315;28;20031;-55
2021/01/11 02:33:53;;;;;;;11.45;7.22;;;;;;;;;;5032101;28;20487;-51
2021/01/11 02:36:21;;;;;;;13.70;7.38;;;;;;;;;;5039483;28;20363;-55
2021/01/11 02:38:48;;;;;;;13.50;7.35;;;;;;;;;;5027185;28;20034;-50
2021/01/11 02:41:14;;;;;;;18.33;8.82;;;;;;;;;;5014068;28;20046;-50
2021/01/11 02:43:39;;;;;;;14.77;7.32;;;;;;;;;;5026670;28;20021;-56
2021/01/11 02:46:06;;;;;;;14.52;8.27;;;;;;;;;;5026820;28;20477;-56
2021/01/11 02:48:55;;;;;;;15.85;8.32;;;;;;;;;;5026337;28;20030;-54
2021/01/11 02:51:39;;;;;;;17.30;8.32;;;;;;;;;;5020049;28;20041;-54
2021/01/11 02:54:13;;;;;;;16.60;7.80;;;;;;;;;;5030670;28;20095;-51
2021/01/11 02:56:45;;;;;;;16.40;8.30;;;;;;;;;;5030693;28;20525;-55
2021/01/11 02:59:20;;;;;;;18.83;7.78;;;;;;;;;;5031361;28;20068;-52
2021/01/11 03:01:49;;;;;;;14.27;8.57;;;;;;;;;;5030734;28;20553;-53
2021/01/11 03:04:21;;;;;;;15.57;9.35;;;;;;;;;;5030154;28;20036;-52
2021/01/11 03:06:53;;;;;;;14.27;8.07;;;;;;;;;;5030768;28;20401;-56
2021/01/11 03:09:19;;;;;;;16.90;9.18;;;;;;;;;;5030658;28;20025;-54
2021/01/11 03:11:45;;;;;;;18.13;9.23;;;;;;;;;;5010778;28;20466;-57
2021/01/11 03:14:11;;;;;;;15.70;9.02;;;;;;;;;;5027072;28;20771;-55
2021/01/11 03:16:37;;;;;;;18.02;10.27;;;;;;;;;;5030266;28;20481;-53
2021/01/11 03:19:03;;;;;;;18.00;8.65;;;;;;;;;;5030294;28;20377;-52
2021/01/11 03:21:32;;;;;;;18.60;9.38;;;;;;;;;;5030670;28;20600;-51
2021/01/11 03:23:58;;;;;;;17.58;9.30;;;;;;;;;;5030154;28;20033;-54
2021/01/11 03:26:25;;;;;;;18.73;9.23;;;;;;;;;;5030219;28;20072;-54
2021/01/11 03:28:51;;;;;;;20.88;10.60;;;;;;;;;;5030116;28;20037;-55
2021/01/11 03:31:17;;;;;;;17.05;9.75;;;;;;;;;;5030119;28;20037;-54
2021/01/11 03:33:43;;;;;;;18.23;9.73;;;;;;;;;;5030563;28;20473;-53
2021/01/11 03:36:09;;;;;;;19.77;9.32;;;;;;;;;;5029315;28;20026;-54
2021/01/11 03:38:35;;;;;;;16.88;9.27;;;;;;;;;;5030314;28;20033;-50
2021/01/11 03:41:04;;;;;;;17.10;9.45;;;;;;;;;;5026785;28;20037;-54
2021/01/11 03:43:30;;;;;;;18.65;9.18;;;;;;;;;;5030523;28;20544;-54
2021/01/11 03:45:56;;;;;;;17.77;9.90;;;;;;;;;;5030182;28;20113;-52
2021/01/11 03:48:23;;;;;;;18.13;9.57;;;;;;;;;;5029964;28;20048;-57
2021/01/11 03:50:49;;;;;;;20.15;10.95;;;;;;;;;;5030033;28;20025;-53
2021/01/11 03:53:15;;;;;;;20.73;9.63;;;;;;;;;;5030283;28;20048;-54
2021/01/11 03:55:41;;;;;;;18.58;9.60;;;;;;;;;;5029026;28;20037;-55
2021/01/11 03:58:08;;;;;;;18.92;9.82;;;;;;;;;;5030446;28;20076;-54
2021/01/11 04:00:35;;;;;;;20.38;10.02;;;;;;;;;;5030358;28;20026;-54
2021/01/11 04:03:01;;;;;;;16.33;9.15;;;;;;;;;;5028162;28;20373;-54
2021/01/11 04:05:27;;;;;;;18.08;10.00;;;;;;;;;;5029361;28;20033;-53
2021/01/11 04:07:53;;;;;;;16.70;10.48;;;;;;;;;;5029899;28;20109;-57
2021/01/11 04:10:19;;;;;;;19.25;10.15;;;;;;;;;;5021154;28;20026;-52
2021/01/11 04:12:45;;;;;;;20.48;10.13;;;;;;;;;;5010189;28;20034;-53
2021/01/11 04:15:12;;;;;;;22.00;10.55;;;;;;;;;;5021434;28;20283;-52
2021/01/11 04:17:38;;;;;;;20.63;10.63;;;;;;;;;;5028915;28;20037;-57
2021/01/11 04:20:07;;;;;;;17.55;10.35;;;;;;;;;;5029060;28;20381;-55
2021/01/11 04:22:33;;;;;;;17.45;9.57;;;;;;;;;;5027671;28;20104;-56
2021/01/11 04:24:59;;;;;;;17.23;9.40;;;;;;;;;;5029541;28;20025;-55
2021/01/11 04:27:25;;;;;;;16.83;8.68;;;;;;;;;;5027805;28;20033;-52
2021/01/11 04:29:51;;;;;;;18.85;9.73;;;;;;;;;;5028817;28;20115;-55
2021/01/11 04:32:17;;;;;;;20.23;9.90;;;;;;;;;;5029324;28;20083;-51
2021/01/11 04:34:43;;;;;;;16.88;9.40;;;;;;;;;;5035305;28;20037;-54
2021/01/11 04:37:09;;;;;;;18.00;9.73;;;;;;;;;;5028526;28;20028;-55
2021/01/11 04:39:35;;;;;;;20.25;10.05;;;;;;;;;;5027280;28;20030;-53
2021/01/11 04:42:03;;;;;;;19.02;9.88;;;;;;;;;;5010183;28;20057;-53
2021/01/11 04:44:29;;;;;;;17.05;8.70;;;;;;;;;;5028751;28;20084;-55
2021/01/11 04:46:55;;;;;;;16.98;9.88;;;;;;;;;;5029147;28;20411;-55
2021/01/11 04:49:21;;;;;;;19.13;10.23;;;;;;;;;;5028370;28;20083;-55
2021/01/11 04:51:48;;;;;;;18.25;10.45;;;;;;;;;;5030366;28;20037;-57
2021/01/11 04:54:18;;;;;;;19.58;10.35;;;;;;;;;;5028994;28;20059;-55
2021/01/11 04:56:46;;;;;;;19.88;10.38;;;;;;;;;;5028000;28;20029;-52
2021/01/11 04:59:16;;;;;;;18.75;9.73;;;;;;;;;;5027680;28;20033;-50
2021/01/11 05:01:42;;;;;;;16.63;10.10;;;;;;;;;;5028585;28;20030;-54
2021/01/11 05:04:08;;;;;;;15.93;9.75;;;;;;;;;;5028577;28;20386;-51
2021/01/11 05:06:34;;;;;;;17.35;9.65;;;;;;;;;;5026746;28;20025;-56
2021/01/11 05:09:05;;;;;;;17.90;9.82;;;;;;;;;;5028009;28;20174;-55
2021/01/11 05:11:30;;;;;;;18.88;10.35;;;;;;;;;;5010083;28;20239;-55
2021/01/11 05:13:56;;;;;;;15.90;9.90;;;;;;;;;;5008260;28;20030;-51
2021/01/11 05:16:22;;;;;;;20.85;9.73;;;;;;;;;;5023277;28;20021;-52
2021/01/11 05:18:50;;;;;;;17.70;9.88;;;;;;;;;;5028500;28;20305;-54
2021/01/11 05:21:36;;;;;;;16.65;9.52;;;;;;;;;;5027685;28;20033;-53
2021/01/11 05:24:02;;;;;;;20.73;10.65;;;;;;;;;;5028153;28;20033;-54
2021/01/11 05:26:39;;;;;;;17.55;10.13;;;;;;;;;;5027504;28;20045;-56
2021/01/11 05:29:25;;;;;;;19.98;10.15;;;;;;;;;;5028242;28;20034;-52
2021/01/11 05:31:52;;;;;;;20.98;10.50;;;;;;;;;;5027955;28;20493;-52
2021/01/11 05:34:18;;;;;;;18.50;9.85;;;;;;;;;;5028932;28;20108;-50
2021/01/11 05:36:44;;;;;;;18.35;9.75;;;;;;;;;;5027946;28;20029;-56
2021/01/11 05:39:10;;;;;;;16.70;9.93;;;;;;;;;;5027970;28;20029;-50
2021/01/11 05:41:40;;;;;;;18.80;10.60;;;;;;;;;;5019743;28;20052;-53
2021/01/11 05:44:09;;;;;;;18.73;9.75;;;;;;;;;;5028786;28;20025;-51
2021/01/11 05:46:35;;;;;;;17.20;9.10;;;;;;;;;;5027112;28;20040;-51
2021/01/11 05:49:01;;;;;;;16.27;9.80;;;;;;;;;;5027738;28;20037;-49
2021/01/11 05:51:28;;;;;;;19.08;11.00;;;;;;;;;;5027265;28;20052;-50
2021/01/11 05:53:55;;;;;;;17.83;9.77;;;;;;;;;;5028617;28;20025;-49
2021/01/11 05:56:20;;;;;;;21.75;10.70;;;;;;;;;;5026890;28;20083;-49
2021/01/11 05:59:13;;;;;;;20.63;11.13;;;;;;;;;;5027150;28;20033;-47
2021/01/11 06:01:39;;;;;;;17.63;9.93;;;;;;;;;;5027152;28;20528;-47
2021/01/11 06:04:05;;;;;;;17.67;10.38;;;;;;;;;;5027543;28;20148;-49
2021/01/11 06:06:31;;;;;;;22.48;10.57;;;;;;;;;;5027948;28;20144;-51
2021/01/11 06:08:57;;;;;;;21.25;10.73;;;;;;;;;;5025109;28;20020;-47
2021/01/11 06:11:25;;;;;;;17.95;9.55;;;;;;;;;;5025788;28;20021;-53
2021/01/11 06:13:51;;;;;;;20.33;10.13;;;;;;;;;;5026875;28;20580;-48
2021/01/11 06:16:18;;;;;;;16.45;9.63;;;;;;;;;;5027143;28;20026;-52
2021/01/11 06:18:44;;;;;;;20.70;10.20;;;;;;;;;;5027138;28;20512;-52
2021/01/11 06:21:11;;;;;;;17.20;10.00;;;;;;;;;;5027071;28;20038;-49
2021/01/11 06:23:38;;;;;;;16.35;9.57;;;;;;;;;;5026041;28;20029;-51
2021/01/11 06:26:24;;;;;;;17.50;9.82;;;;;;;;;;5025892;28;20478;-51
2021/01/11 06:28:50;;;;;;;16.38;10.15;;;;;;;;;;5027186;28;20363;-48
2021/01/11 06:31:17;;;;;;;19.25;9.50;;;;;;;;;;5027493;28;20033;-49
2021/01/11 06:33:43;;;;;;;15.60;9.98;;;;;;;;;;5028248;28;20053;-50
2021/01/11 06:36:19;;;;;;;20.02;10.15;;;;;;;;;;5027142;28;20464;-47
2021/01/11 06:38:47;;;;;;;18.75;10.05;;;;;;;;;;5026859;28;20087;-48
2021/01/11 06:41:14;;;;;;;20.75;10.73;;;;;;;;;;5007029;28;20107;-49
2021/01/11 06:43:50;;;;;;;18.58;9.50;;;;;;;;;;5019454;28;20029;-48
2021/01/11 06:46:28;;;;;;;15.23;8.80;;;;;;;;;;5025937;28;20026;-54
2021/01/11 06:49:01;;;;;;;15.65;9.02;;;;;;;;;;5026731;28;20072;-50
2021/01/11 06:51:33;;;;;;;15.88;9.27;;;;;;;;;;5027306;28;20025;-50
2021/01/11 06:54:08;;;;;;;17.38;9.52;;;;;;;;;;5025975;28;20484;-52
2021/01/11 06:56:35;;;;;;;16.33;9.65;;;;;;;;;;5026294;28;20041;-48
2021/01/11 06:59:17;;;;;;;14.90;9.43;;;;;;;;;;5025307;28;20045;-48
2021/01/11 07:01:44;;;;;;;18.02;9.73;;;;;;;;;;5026697;28;20373;-51
2021/01/11 07:04:10;;;;;;;19.65;9.48;;;;;;;;;;5026992;28;20025;-51
2021/01/11 07:06:37;;;;;;;20.35;10.55;;;;;;;;;;5018235;28;20064;-52
2021/01/11 07:09:13;;;;;;;14.93;9.38;;;;;;;;;;5021997;28;20416;-48
2021/01/11 07:11:40;;;;;;;20.15;9.68;;;;;;;;;;5012199;28;20120;-49
2021/01/11 07:14:06;;;;;;;22.88;10.80;;;;;;;;;;5012604;28;20557;-48
2021/01/11 07:16:45;;;;;;;16.77;9.40;;;;;;;;;;5026355;28;20041;-51
2021/01/11 07:19:12;;;;;;;16.60;9.35;;;;;;;;;;5022257;28;20032;-51
2021/01/11 07:21:38;;;;;;;17.80;9.68;;;;;;;;;;5025893;28;20551;-49
2021/01/11 07:24:05;;;;;;;16.77;9.40;;;;;;;;;;5017763;28;20030;-47
2021/01/11 07:26:32;;;;;;;20.48;10.20;;;;;;;;;;5006941;28;20057;-52
2021/01/11 07:28:59;;;;;;;16.80;9.75;;;;;;;;;;5015716;28;20381;-52
2021/01/11 07:31:32;;;;;;;19.40;10.07;;;;;;;;;;5025548;28;20033;-48
2021/01/11 07:34:01;;;;;;;;;;;;;;;;;;5034647;28;20060;-47
2021/01/11 07:36:27;;;;;;;20.55;9.95;;;;;;;;;;5020076;28;19917;-49
2021/01/11 07:39:06;;;;;;;18.75;9.85;;;;;;;;;;5023395;28;20037;-50
2021/01/11 07:41:32;;;;;;;16.50;9.80;;;;;;;;;;5023126;28;20103;-50
2021/01/11 07:44:10;;;;;;;18.85;8.95;;;;;;;;;;5027494;28;20032;-50
2021/01/11 07:46:36;;;;;;;16.80;9.57;;;;;;;;;;5029418;28;20037;-49
2021/01/11 07:49:15;;;;;;;16.55;9.80;;;;;;;;;;5027514;28;20033;-50
2021/01/11 07:51:41;;;;;;;18.50;9.50;;;;;;;;;;5029800;28;20047;-48
2021/01/11 07:54:08;;;;;;;15.18;9.63;;;;;;;;;;5026109;28;20458;-54
2021/01/11 07:56:35;;;;;;;19.65;10.23;;;;;;;;;;5026650;28;20527;-48
2021/01/11 07:59:04;;;;;;;15.88;9.95;;;;;;;;;;5020115;28;20426;-55
2021/01/11 08:01:30;;;;;;;17.05;9.30;;;;;;;;;;5022488;28;20182;-51
2021/01/11 08:03:56;;;;;;;14.07;8.82;;;;;;;;;;5022744;28;20042;-50
2021/01/11 08:06:23;;;;;;;19.45;10.60;;;;;;;;;;5021327;28;20037;-51
2021/01/11 08:08:52;;;;;;;17.00;9.85;;;;;;;;;;5023040;28;20039;-49
2021/01/11 08:11:20;;;;;;;17.88;9.48;;;;;;;;;;5029453;28;20887;-52
2021/01/11 08:13:46;;;;;;;20.02;9.85;;;;;;;;;;5022573;28;20397;-50
2021/01/11 08:16:13;;;;;;;17.60;9.95;;;;;;;;;;5025774;28;20033;-50
2021/01/11 08:18:39;;;;;;;16.02;9.73;;;;;;;;;;5026329;28;20033;-53
2021/01/11 08:21:06;;;;;;;15.65;9.32;;;;;;;;;;5028795;28;20021;-51
2021/01/11 08:23:32;;;;;;;17.02;9.02;;;;;;;;;;5024750;28;20056;-54
2021/01/11 08:25:59;;;;;;;16.48;9.02;;;;;;;;;;5015562;28;20053;-51
2021/01/11 08:28:28;;;;;;;15.85;9.15;;;;;;;;;;5027119;28;20125;-48
2021/01/11 08:30:54;;;;;;;15.40;8.93;;;;;;;;;;5022259;28;20767;-48
2021/01/11 08:33:20;;;;;;;17.08;9.52;;;;;;;;;;5028059;28;20024;-50
2021/01/11 08:35:46;;;;;;;19.88;10.25;;;;;;;;;;5015096;28;20041;-50
2021/01/11 08:38:12;;;;;;;15.07;8.48;;;;;;;;;;5019405;28;20033;-52
2021/01/11 08:40:39;;;;;;;19.08;9.75;;;;;;;;;;5026163;28;20063;-51
2021/01/11 08:43:13;;;;;;;17.70;9.63;;;;;;;;;;5025812;28;20061;-50
2021/01/11 08:45:40;;;;;;;16.95;8.55;;;;;;;;;;5025152;28;20022;-49
2021/01/11 08:48:07;;;;;;;14.30;8.27;;;;;;;;;;5016664;28;20056;-52
2021/01/11 08:50:38;;;;;;;14.18;8.63;;;;;;;;;;5028434;28;20048;-51
2021/01/11 08:53:22;;;;;;;16.27;8.77;;;;;;;;;;5029257;28;20034;-50
2021/01/11 08:55:54;;;;;;;15.13;8.25;;;;;;;;;;5029031;28;20449;-52
2021/01/11 08:58:20;;;;;;;10.95;6.68;;;;;;;;;;5024433;28;20120;-48
2021/01/11 09:00:46;;;;;;;16.58;8.60;;;;;;;;;;5027554;28;20382;-52
2021/01/11 09:03:12;;;;;;;12.32;8.02;;;;;;;;;;5025675;28;20026;-50
2021/01/11 09:05:38;;;;;;;18.20;10.68;;;;;;;;;;5023615;28;20351;-49
2021/01/11 09:08:16;;;;;;;13.40;7.80;;;;;;;;;;5025835;28;20029;-50
2021/01/11 09:10:45;;;;;;;16.17;8.90;;;;;;;;;;5024359;28;20033;-48
2021/01/11 09:13:21;;;;;;;18.02;8.85;;;;;;;;;;5023083;28;20087;-49
2021/01/11 09:15:47;;;;;;;16.60;8.40;;;;;;;;;;5026104;28;20064;-50
2021/01/11 09:18:14;;;;;;;13.98;8.15;;;;;;;;;;5028532;28;20480;-49
2021/01/11 09:20:41;;;;;;;16.45;8.32;;;;;;;;;;5027974;28;20029;-48
2021/01/11 09:23:07;;;;;;;13.32;7.78;;;;;;;;;;5025046;28;20029;-47
2021/01/11 09:25:34;;;;;;;13.88;8.00;;;;;;;;;;5022577;28;20549;-48
2021/01/11 09:28:01;;;;;;;13.88;7.55;;;;;;;;;;5023157;28;20033;-52
2021/01/11 09:30:27;;;;;;;14.05;8.10;;;;;;;;;;5037236;28;20552;-49
2021/01/11 09:32:53;;;;;;;15.13;8.25;;;;;;;;;;5009423;28;20482;-50
2021/01/11 09:35:19;;;;;;;15.23;8.25;;;;;;;;;;5032845;28;20072;-49
2021/01/11 09:37:45;;;;;;;12.95;7.70;;;;;;;;;;5028192;28;20104;-50
2021/01/11 09:40:12;;;;;;;12.52;7.38;;;;;;;;;;5026188;28;20033;-47
2021/01/11 09:42:38;;;;;;;16.15;7.45;;;;;;;;;;5025347;28;20053;-50
2021/01/11 09:45:06;;;;;;;12.75;6.97;;;;;;;;;;5029700;28;20037;-49
2021/01/11 09:47:32;;;;;;;16.73;8.43;;;;;;;;;;5017750;28;20065;-53
2021/01/11 09:49:58;;;;;;;14.73;7.78;;;;;;;;;;5026098;28;20044;-50
2021/01/11 09:52:24;;;;;;;12.60;7.90;;;;;;;;;;5028393;28;20051;-51
2021/01/11 09:54:50;;;;;;;12.82;7.30;;;;;;;;;;5027804;28;20131;-52
2021/01/11 09:57:16;;;;;;;12.98;7.43;;;;;;;;;;5025398;28;20091;-51
2021/01/11 09:59:42;;;;;;;13.05;7.20;;;;;;;;;;5028068;28;20473;-53
2021/01/11 10:02:09;;;;;;;13.82;7.13;;;;;;;;;;5026082;28;20025;-51
2021/01/11 10:04:35;;;;;;;13.10;7.32;;;;;;;;;;5018838;28;20481;-50
2021/01/11 10:07:01;;;;;;;14.32;7.55;;;;;;;;;;5027235;28;20029;-52
2021/01/11 10:09:28;;;;;;;11.88;6.70;;;;;;;;;;5023435;28;20021;-51
2021/01/11 10:11:59;;;;;;;13.18;7.28;;;;;;;;;;5027416;28;20033;-50
2021/01/11 10:14:25;;;;;;;13.13;7.70;;;;;;;;;;5025292;28;20079;-51
2021/01/11 10:16:51;;;;;;;13.55;6.97;;;;;;;;;;5025502;28;20191;-49
2021/01/11 10:19:19;;;;;;;14.75;6.70;;;;;;;;;;5027629;28;20483;-49
2021/01/11 10:21:46;;;;;;;11.10;6.85;;;;;;;;;;5023807;28;20036;-48
2021/01/11 10:24:12;;;;;;;14.15;7.47;;;;;;;;;;5026817;28;20037;-48
2021/01/11 10:26:41;;;;;;;11.73;7.05;;;;;;;;;;5028871;28;20072;-49
2021/01/11 10:29:07;;;;;;;11.88;6.93;;;;;;;;;;5026972;28;20133;-48
2021/01/11 10:31:33;;;;;;;12.63;7.25;;;;;;;;;;5027520;28;20382;-48
2021/01/11 10:33:59;;;;;;;11.15;6.35;;;;;;;;;;5034011;28;20032;-49
2021/01/11 10:36:25;;;;;;;10.07;6.43;;;;;;;;;;5042023;28;20029;-50
2021/01/11 10:38:51;;;;;;;13.98;6.68;;;;;;;;;;5026846;28;20037;-51
2021/01/11 10:41:20;;;;;;;12.27;6.28;;;;;;;;;;5025966;28;20050;-53
2021/01/11 10:43:47;;;;;;;12.15;5.80;;;;;;;;;;5025721;28;20025;-51
2021/01/11 10:46:16;;;;;;;12.02;6.85;;;;;;;;;;5023148;28;20052;-52
2021/01/11 10:48:43;;;;;;;12.75;6.80;;;;;;;;;;5013932;28;20496;-51
2021/01/11 10:51:12;;;;;;;14.05;6.80;;;;;;;;;;5021413;28;20040;-52
2021/01/11 10:53:39;;;;;;;14.70;6.85;;;;;;;;;;5026013;28;20045;-50
2021/01/11 10:56:06;;;;;;;10.80;6.65;;;;;;;;;;5025032;28;20033;-53
2021/01/11 10:58:32;;;;;;;10.60;5.70;;;;;;;;;;5020483;28;20478;-51
2021/01/11 11:00:58;;;;;;;12.73;7.22;;;;;;;;;;5025531;28;20037;-48
2021/01/11 11:03:24;;;;;;;13.68;6.65;;;;;;;;;;5026800;28;20029;-52
2021/01/11 11:05:50;;;;;;;12.10;6.72;;;;;;;;;;5025893;28;20450;-51
2021/01/11 11:08:16;;;;;;;12.20;6.03;;;;;;;;;;5026142;28;20551;-50
2021/01/11 11:10:42;;;;;;;16.95;7.10;;;;;;;;;;5025198;28;20046;-53
2021/01/11 11:13:08;;;;;;;14.52;6.25;;;;;;;;;;5025691;28;20786;-49
2021/01/11 11:15:34;;;;;;;9.98;6.03;;;;;;;;;;5029564;28;20044;-48
2021/01/11 11:18:00;;;;;;;10.57;6.30;;;;;;;;;;5029214;28;20025;-52
2021/01/11 11:20:26;;;;;;;11.15;6.32;;;;;;;;;;5029270;28;20026;-50
2021/01/11 11:22:53;;;;;;;12.38;7.10;;;;;;;;;;5034772;28;20028;-50
2021/01/11 11:25:20;;;;;;;8.02;5.60;;;;;;;;;;5032655;28;20717;-49
2021/01/11 11:27:48;;;;;;;11.95;6.25;;;;;;;;;;5033495;28;20031;-52
2021/01/11 11:30:14;;;;;;;11.40;6.13;;;;;;;;;;5031014;28;20040;-54
2021/01/11 11:32:44;;;;;;;12.40;6.35;;;;;;;;;;5025136;28;20040;-50
2021/01/11 11:35:10;;;;;;;9.68;6.05;;;;;;;;;;5027678;28;20155;-53
2021/01/11 11:37:36;;;;;;;9.57;6.35;;;;;;;;;;5035583;28;20035;-53
2021/01/11 11:40:02;;;;;;;13.00;7.00;;;;;;;;;;5026982;28;20029;-50
2021/01/11 11:42:33;;;;;;;12.07;6.35;;;;;;;;;;5026526;28;20053;-53
2021/01/11 11:44:59;;;;;;;9.00;6.10;;;;;;;;;;5028413;28;20060;-47
2021/01/11 11:47:25;;;;;;;10.52;6.05;;;;;;;;;;5025512;28;20393;-53
2021/01/11 11:49:51;;;;;;;13.70;5.97;;;;;;;;;;5021354;28;20041;-50
2021/01/11 11:52:17;;;;;;;11.05;6.53;;;;;;;;;;5026755;28;20531;-51
2021/01/11 11:54:42;;;;;;;10.05;6.10;;;;;;;;;;5028432;28;20527;-49
2021/01/11 11:57:08;;;;;;;10.07;6.10;;;;;;;;;;5015561;28;20081;-52
2021/01/11 11:59:34;;;;;;;11.93;6.45;;;;;;;;;;5019215;28;20052;-47
2021/01/11 12:02:00;;;;;;;12.60;6.80;;;;;;;;;;5013701;28;20032;-50
2021/01/11 12:04:26;;;;;;;12.88;6.47;;;;;;;;;;5027366;28;20083;-51
2021/01/11 12:06:52;;;;;;;11.25;6.03;;;;;;;;;;5025844;28;20033;-52
2021/01/11 12:09:18;;;;;;;10.57;5.80;;;;;;;;;;5027946;28;20021;-49
2021/01/11 12:11:48;;;;;;;11.68;5.85;;;;;;;;;;5020395;28;20076;-50
2021/01/11 12:14:14;;;;;;;11.35;5.82;;;;;;;;;;5027196;28;20056;-50
2021/01/11 12:16:40;;;;;;;7.97;5.07;;;;;;;;;;5028241;28;20025;-51
2021/01/11 12:19:06;;;;;;;10.57;5.88;;;;;;;;;;5028121;28;20033;-50
2021/01/11 12:21:33;;;;;;;8.63;5.30;;;;;;;;;;5028171;28;20033;-50
2021/01/11 12:24:00;;;;;;;9.45;5.53;;;;;;;;;;5025758;28;20418;-51
2021/01/11 12:26:26;;;;;;;14.52;6.15;;;;;;;;;;5026973;28;20029;-50
2021/01/11 12:28:52;;;;;;;9.77;5.55;;;;;;;;;;5028366;28;20057;-52
2021/01/11 12:31:25;;;;;;;9.63;5.75;;;;;;;;;;5028501;28;20025;-54
2021/01/11 12:33:51;;;;;;;10.13;5.70;;;;;;;;;;5022335;28;20095;-52
2021/01/11 12:36:27;;;;;;;12.30;5.80;;;;;;;;;;5026083;28;20558;-51
2021/01/11 12:38:53;;;;;;;12.05;6.20;;;;;;;;;;5025466;28;20061;-50
2021/01/11 12:41:20;;;;;;;9.00;5.88;;;;;;;;;;5022926;28;20044;-50
2021/01/11 12:43:46;;;;;;;8.95;5.38;;;;;;;;;;5027762;28;20053;-50
2021/01/11 12:46:13;;;;;;;9.63;5.68;;;;;;;;;;5023142;28;20033;-50
2021/01/11 12:48:39;;;;;;;10.00;6.18;;;;;;;;;;5023898;28;20053;-49
2021/01/11 12:51:05;;;;;;;12.38;6.55;;;;;;;;;;5026842;28;20017;-52
2021/01/11 12:53:32;;;;;;;9.15;5.75;;;;;;;;;;5027827;28;20513;-53
2021/01/11 12:55:58;;;;;;;12.25;6.53;;;;;;;;;;5025477;28;20065;-54
2021/01/11 12:58:24;;;;;;;12.00;6.60;;;;;;;;;;5018800;28;20048;-52
2021/01/11 13:00:50;;;;;;;12.50;6.80;;;;;;;;;;5024801;28;20025;-50
2021/01/11 13:03:16;;;;;;;11.90;6.22;;;;;;;;;;5018189;28;20095;-54
2021/01/11 13:05:46;;;;;;;14.35;6.80;;;;;;;;;;5025570;28;20014;-52
2021/01/11 13:08:12;;;;;;;10.73;6.32;;;;;;;;;;5021564;28;20362;-53
2021/01/11 13:10:38;;;;;;;13.75;6.75;;;;;;;;;;5025679;28;20032;-54
2021/01/11 13:13:04;;;;;;;8.38;5.78;;;;;;;;;;5027346;28;20462;-53
2021/01/11 13:15:30;;;;;;;16.25;7.25;;;;;;;;;;5024843;28;20409;-55
2021/01/11 13:17:56;;;;;;;16.10;8.02;;;;;;;;;;5025966;28;20030;-51
2021/01/11 13:20:22;;;;;;;14.88;7.15;;;;;;;;;;5022751;28;20033;-54
2021/01/11 13:22:48;;;;;;;12.60;6.53;;;;;;;;;;5025646;28;20029;-52
2021/01/11 13:25:14;;;;;;;16.55;8.32;;;;;;;;;;5017549;28;20580;-53
2021/01/11 13:27:42;;;;;;;14.38;7.68;;;;;;;;;;5027428;28;20029;-50
2021/01/11 13:30:08;;;;;;;13.93;7.70;;;;;;;;;;5027062;28;20037;-50
2021/01/11 13:32:34;;;;;;;13.57;7.53;;;;;;;;;;5025753;28;20044;-51
2021/01/11 13:35:00;;;;;;;12.70;7.13;;;;;;;;;;5027172;28;20030;-50
2021/01/11 13:37:26;;;;;;;12.25;7.10;;;;;;;;;;5023418;28;20029;-51
2021/01/11 13:39:52;;;;;;;13.20;7.15;;;;;;;;;;5026557;28;20029;-52
2021/01/11 13:42:18;;;;;;;13.27;7.00;;;;;;;;;;5024500;28;20405;-53
2021/01/11 13:44:44;;;;;;;13.48;7.32;;;;;;;;;;5020817;28;20494;-51
2021/01/11 13:47:10;;;;;;;15.07;7.45;;;;;;;;;;5015583;28;20037;-50
2021/01/11 13:49:36;;;;;;;11.38;6.55;;;;;;;;;;5026070;28;20033;-52
2021/01/11 13:52:02;;;;;;;13.82;7.03;;;;;;;;;;5026850;28;20029;-49
2021/01/11 13:54:28;;;;;;;12.13;6.50;;;;;;;;;;5019852;28;20374;-49
2021/01/11 13:56:54;;;;;;;12.60;6.38;;;;;;;;;;5012416;28;20030;-49
2021/01/11 13:59:20;;;;;;;12.38;6.57;;;;;;;;;;5007775;28;20014;-53
2021/01/11 14:01:48;;;;;;;12.07;6.85;;;;;;;;;;5019668;28;20523;-48
2021/01/11 14:04:14;;;;;;;12.52;6.80;;;;;;;;;;5026253;28;20033;-55
2021/01/11 14:06:40;;;;;;;10.35;6.20;;;;;;;;;;5023882;28;20060;-49
2021/01/11 14:09:06;;;;;;;13.55;6.95;;;;;;;;;;5026149;28;20045;-49
2021/01/11 14:11:32;;;;;;;12.23;6.53;;;;;;;;;;5016744;28;20040;-53
2021/01/11 14:13:58;;;;;;;10.55;6.13;;;;;;;;;;5019063;28;20025;-48
2021/01/11 14:16:27;;;;;;;14.60;6.75;;;;;;;;;;5018922;28;20026;-49
2021/01/11 14:18:53;;;;;;;11.25;5.95;;;;;;;;;;5023542;28;20033;-52
2021/01/11 14:21:21;;;;;;;10.55;6.53;;;;;;;;;;5026232;28;20729;-51
2021/01/11 14:23:47;;;;;;;12.43;6.18;;;;;;;;;;5027566;28;20053;-50
2021/01/11 14:26:17;;;;;;;10.90;6.53;;;;;;;;;;5026408;28;20022;-50
2021/01/11 14:28:44;;;;;;;16.77;6.68;;;;;;;;;;5026171;28;20037;-50
2021/01/11 14:31:10;;;;;;;14.00;7.00;;;;;;;;;;5025276;28;20484;-47